Time;durP1;ratioP1;P1;durP2;ratioP2;P2;SDS_P1;SDS_P2;PMS_P1;PMS_P2;Temp;Humidity;BMP_temperature;BMP_pressure;BME280_temperature;BME280_humidity;BME280_pressure;Samples;Min_cycle;Max_cycle;Signal;HPM_P1;HPM_P2
2022/01/12 00:01:01;;;;;;;;;;;-1.10;99.90;;;;;;5132828;28;19930;-80
2022/01/12 00:03:27;;;;;;;;;;;-1.10;99.90;;;;;;5131764;28;19923;-80
2022/01/12 00:05:55;;;;;;;;;;;-1.10;99.90;;;;;;5127461;28;19931;-80
2022/01/12 00:08:21;;;;;;;;;;;-1.10;99.90;;;;;;5124647;28;19924;-79
2022/01/12 00:10:48;;;;;;;;;;;-1.10;99.90;;;;;;5122627;28;19927;-79
2022/01/12 00:13:15;;;;;;;;;;;-1.10;99.90;;;;;;5122233;27;19924;-80
2022/01/12 00:15:41;;;;;;;;;;;-1.30;99.90;;;;;;5122555;27;19959;-80
2022/01/12 00:18:07;;;;;;;;;;;-1.20;99.90;;;;;;5123272;28;19980;-80
2022/01/12 00:20:34;;;;;;;;;;;-1.10;99.90;;;;;;5124227;28;20306;-80
2022/01/12 00:23:02;;;;;;;;;;;-1.10;99.90;;;;;;5122581;28;19924;-80
2022/01/12 00:25:32;;;;;;;;;;;-1.10;99.90;;;;;;5122107;28;19923;-81
2022/01/12 00:33:27;;;;;;;;;;;-1.00;99.90;;;;;;5121375;28;19926;-80
2022/01/12 00:35:54;;;;;;;;;;;-1.10;99.90;;;;;;5121830;28;19924;-80
2022/01/12 00:38:25;;;;;;;;;;;-1.10;99.90;;;;;;5122247;28;20336;-80
2022/01/12 00:40:52;;;;;;;;;;;-1.20;99.90;;;;;;5121207;28;19970;-80
2022/01/12 00:43:19;;;;;;;;;;;-1.20;99.90;;;;;;5121377;28;19955;-80
2022/01/12 00:45:47;;;;;;;;;;;-1.30;99.90;;;;;;5121467;28;19971;-80
2022/01/12 00:48:14;;;;;;;;;;;-1.30;99.90;;;;;;5132099;28;19951;-80
2022/01/12 00:50:40;;;;;;;;;;;-1.30;99.90;;;;;;5140447;28;19924;-79
2022/01/12 00:53:07;;;;;;;;;;;-1.30;99.90;;;;;;5140805;27;19946;-79
2022/01/12 00:55:35;;;;;;;;;;;-1.20;99.90;;;;;;5140038;27;19924;-79
2022/01/12 00:58:02;;;;;;;;;;;-1.10;99.90;;;;;;5140702;28;19924;-79
2022/01/12 01:00:29;;;;;;;;;;;-1.10;99.90;;;;;;5141253;27;19939;-80
2022/01/12 01:02:55;;;;;;;;;;;-1.20;99.90;;;;;;5140827;28;19911;-79
2022/01/12 01:05:22;;;;;;;;;;;-1.10;99.90;;;;;;5140535;28;20018;-79
2022/01/12 01:07:50;;;;;;;;;;;-1.10;99.90;;;;;;5127094;28;19924;-80
2022/01/12 01:10:24;;;;;;;;;;;-1.10;99.90;;;;;;5121321;28;19924;-80
2022/01/12 01:12:52;;;;;;;;;;;-1.00;99.90;;;;;;5121329;28;19923;-80
2022/01/12 01:15:27;;;;;;;;;;;-1.00;99.90;;;;;;5121069;28;19927;-79
2022/01/12 01:26:06;;;;;;;;;;;-1.10;99.90;;;;;;5119175;28;19926;-80
2022/01/12 01:28:34;;;;;;;;;;;-1.00;99.90;;;;;;5120033;28;19924;-81
2022/01/12 01:31:00;;;;;;;;;;;-1.00;99.90;;;;;;5119986;28;19923;-81
2022/01/12 01:33:27;;;;;;;;;;;-1.00;99.90;;;;;;5120105;28;19923;-80
2022/01/12 01:35:56;;;;;;;;;;;-1.00;99.90;;;;;;5119618;28;19923;-81
2022/01/12 01:38:23;;;;;;;;;;;-1.10;99.90;;;;;;5119524;28;19927;-80
2022/01/12 01:40:49;;;;;;;;;;;-1.10;99.90;;;;;;5119589;28;19924;-80
2022/01/12 01:43:23;;;;;;;;;;;-0.90;99.90;;;;;;5119956;28;19963;-81
2022/01/12 01:54:03;;;;;;;;;;;-0.90;99.90;;;;;;5085921;28;19920;-81
2022/01/12 01:56:30;;;;;;;;;;;-0.90;99.90;;;;;;5117446;28;20405;-80
2022/01/12 01:58:56;;;;;;;;;;;-0.90;99.90;;;;;;5118087;28;19969;-80
2022/01/12 02:01:24;;;;;;;;;;;-0.90;99.90;;;;;;5118377;28;19999;-81
2022/01/12 02:03:53;;;;;;;;;;;-0.90;99.90;;;;;;5118848;28;19931;-81
2022/01/12 02:06:21;;;;;;;;;;;-0.90;99.90;;;;;;5118427;28;19923;-80
2022/01/12 02:08:47;;;;;;;;;;;-0.80;99.90;;;;;;5119118;28;19970;-80
2022/01/12 02:11:14;;;;;;;;;;;-0.80;99.90;;;;;;5119756;28;20397;-81
2022/01/12 02:13:40;;;;;;;;;;;-0.90;99.90;;;;;;5118323;28;20460;-80
2022/01/12 02:16:07;;;;;;;;;;;-0.90;99.90;;;;;;5117741;28;19953;-79
2022/01/12 02:18:52;;;;;;;;;;;-0.90;99.90;;;;;;5118336;28;19924;-79
2022/01/12 02:35:34;;;;;;;;;;;-0.80;99.90;;;;;;5117896;28;20372;-80
2022/01/12 02:40:49;;;;;;;;;;;-0.80;99.90;;;;;;5118341;28;19930;-79
2022/01/12 02:43:17;;;;;;;;;;;-0.80;99.90;;;;;;5118656;28;20022;-79
2022/01/12 02:51:17;;;;;;;;;;;-0.80;99.90;;;;;;5118722;28;19973;-79
2022/01/12 02:53:44;;;;;;;;;;;-0.80;99.90;;;;;;5118183;28;19924;-80
2022/01/12 02:56:12;;;;;;;;;;;-0.80;99.90;;;;;;5124822;28;19924;-79
2022/01/12 02:58:39;;;;;;;;;;;-0.80;99.90;;;;;;5128607;28;19924;-79
2022/01/12 03:01:29;;;;;;;;;;;-0.90;99.90;;;;;;5126567;28;19928;-80
2022/01/12 03:03:58;;;;;;;;;;;-0.80;99.90;;;;;;5121522;28;20280;-79
2022/01/12 03:06:27;;;;;;;;;;;-0.80;99.90;;;;;;5122971;28;19928;-79
2022/01/12 03:08:55;;;;;;;;;;;-0.80;99.90;;;;;;5132328;28;19940;-80
2022/01/12 03:11:22;;;;;;;;;;;-0.80;99.90;;;;;;5132474;28;20026;-79
2022/01/12 03:13:49;;;;;;;;;;;-0.80;99.90;;;;;;5129979;28;20460;-79
2022/01/12 03:16:18;;;;;;;;;;;-0.80;99.90;;;;;;5131645;28;19931;-79
2022/01/12 03:18:45;;;;;;;;;;;-0.40;99.90;;;;;;5128759;28;19924;-79
2022/01/12 03:21:13;;;;;;;;;;;-0.80;99.90;;;;;;5134672;28;19908;-79
2022/01/12 03:23:39;;;;;;;;;;;-0.80;99.90;;;;;;5136367;28;19928;-80
2022/01/12 03:26:08;;;;;;;;;;;-0.80;99.90;;;;;;5137192;28;19947;-80
2022/01/12 03:28:35;;;;;;;;;;;-0.70;99.90;;;;;;5136960;28;19924;-80
2022/01/12 03:31:08;;;;;;;;;;;-0.70;99.90;;;;;;5138052;28;20302;-80
2022/01/12 03:33:50;;;;;;;;;;;-0.70;99.90;;;;;;5136893;28;19924;-80
2022/01/12 03:36:41;;;;;;;;;;;-0.60;99.90;;;;;;5138337;28;19908;-79
2022/01/12 03:39:09;;;;;;;;;;;-0.60;99.90;;;;;;5133749;28;19924;-79
2022/01/12 03:41:37;;;;;;;;;;;-0.60;99.90;;;;;;5128973;28;19936;-80
2022/01/12 03:44:06;;;;;;;;;;;-0.50;99.90;;;;;;5126704;28;19924;-80
2022/01/12 03:46:34;;;;;;;;;;;-0.50;99.90;;;;;;5125482;28;20017;-80
2022/01/12 03:49:00;;;;;;;;;;;-0.50;99.90;;;;;;5125109;28;19923;-80
2022/01/12 03:51:27;;;;;;;;;;;-0.50;99.90;;;;;;5125036;28;19967;-80
2022/01/12 03:53:53;;;;;;;;;;;-0.60;99.90;;;;;;5122468;28;19959;-80
2022/01/12 03:56:20;;;;;;;;;;;-0.70;99.90;;;;;;5122205;28;19938;-81
2022/01/12 03:58:47;;;;;;;;;;;-0.60;99.90;;;;;;5122146;28;19967;-81
2022/01/12 04:01:14;;;;;;;;;;;-0.60;99.90;;;;;;5125315;28;19945;-80
2022/01/12 04:03:44;;;;;;;;;;;-0.60;99.90;;;;;;5130906;28;19924;-80
2022/01/12 04:08:55;;;;;;;;;;;-0.60;99.90;;;;;;5124790;28;19942;-79
2022/01/12 04:11:22;;;;;;;;;;;-0.50;99.90;;;;;;5122817;28;19931;-79
2022/01/12 04:13:50;;;;;;;;;;;-0.60;99.90;;;;;;5122092;28;19923;-80
2022/01/12 04:16:17;;;;;;;;;;;-0.60;99.90;;;;;;5121484;28;19946;-80
2022/01/12 04:18:43;;;;;;;;;;;-0.60;99.90;;;;;;5122711;28;19928;-80
2022/01/12 04:21:12;;;;;;;;;;;-0.60;99.90;;;;;;5121929;28;20290;-79
2022/01/12 04:23:39;;;;;;;;;;;-0.60;99.90;;;;;;5122257;28;20019;-79
2022/01/12 04:26:09;;;;;;;;;;;-0.50;99.90;;;;;;5120841;28;19923;-80
2022/01/12 04:28:36;;;;;;;;;;;-0.40;99.90;;;;;;5121596;28;19993;-79
2022/01/12 04:31:04;;;;;;;;;;;-0.50;99.90;;;;;;5120797;28;19923;-79
2022/01/12 04:33:31;;;;;;;;;;;-0.50;99.90;;;;;;5121128;28;19931;-79
2022/01/12 04:35:58;;;;;;;;;;;-0.80;99.90;;;;;;5121224;28;19924;-79
2022/01/12 04:38:25;;;;;;;;;;;-0.50;99.90;;;;;;5121463;28;19924;-79
2022/01/12 04:40:52;;;;;;;;;;;-0.40;99.90;;;;;;5121514;28;19923;-79
2022/01/12 04:43:19;;;;;;;;;;;-0.40;99.90;;;;;;5122410;28;19978;-79
2022/01/12 04:46:08;;;;;;;;;;;-0.40;99.90;;;;;;5120923;28;19969;-80
2022/01/12 04:48:49;;;;;;;;;;;-0.50;99.90;;;;;;5120900;28;19998;-80
2022/01/12 04:57:04;;;;;;;;;;;-0.50;99.90;;;;;;5051797;28;19925;-78
2022/01/12 04:59:56;;;;;;;;;;;-0.20;99.90;;;;;;5068278;28;19987;-79
2022/01/12 05:08:52;;;;;;;;;;;-0.10;99.90;;;;;;5016905;28;19928;-82
2022/01/12 05:26:28;;;;;;;;;;;-0.30;99.90;;;;;;5115933;22;19924;-80
2022/01/12 05:28:54;;;;;;;;;;;-0.10;99.90;;;;;;5120856;28;19924;-80
2022/01/12 05:31:21;;;;;;;;;;;-0.20;99.90;;;;;;5122146;28;19963;-79
2022/01/12 05:33:48;;;;;;;;;;;-0.30;99.90;;;;;;5129970;28;19945;-81
2022/01/12 05:36:17;;;;;;;;;;;-0.30;99.90;;;;;;5131551;28;19924;-79
2022/01/12 05:38:43;;;;;;;;;;;-0.30;99.90;;;;;;5128913;28;20014;-81
2022/01/12 05:41:10;;;;;;;;;;;-0.40;99.90;;;;;;5129242;28;20336;-80
2022/01/12 05:43:39;;;;;;;;;;;-0.30;99.90;;;;;;5129475;28;19923;-79
2022/01/12 05:46:10;;;;;;;;;;;-0.30;99.90;;;;;;5130066;28;19986;-80
2022/01/12 05:51:21;;;;;;;;;;;-0.20;99.90;;;;;;5132206;28;19930;-79
2022/01/12 05:53:47;;;;;;;;;;;-0.30;99.90;;;;;;5131404;28;19954;-79
2022/01/12 05:56:14;;;;;;;;;;;-0.30;99.90;;;;;;5125874;27;19923;-80
2022/01/12 05:58:42;;;;;;;;;;;0.10;99.90;;;;;;5120391;28;20001;-80
2022/01/12 06:01:08;;;;;;;;;;;-0.20;99.90;;;;;;5121749;28;19972;-80
2022/01/12 06:03:35;;;;;;;;;;;-0.20;99.90;;;;;;5122119;28;20377;-80
2022/01/12 06:06:01;;;;;;;;;;;-0.20;99.90;;;;;;5125062;28;19992;-81
2022/01/12 06:08:28;;;;;;;;;;;-0.30;99.90;;;;;;5124500;28;19924;-80
2022/01/12 06:10:55;;;;;;;;;;;-0.30;99.90;;;;;;5121415;28;20343;-80
2022/01/12 06:13:21;;;;;;;;;;;-0.40;99.90;;;;;;5120929;28;19928;-80
2022/01/12 06:15:49;;;;;;;;;;;-0.30;99.90;;;;;;5120262;28;19923;-80
2022/01/12 06:18:15;;;;;;;;;;;-0.40;99.90;;;;;;5119633;28;19975;-80
2022/01/12 06:20:42;;;;;;;;;;;-0.30;99.90;;;;;;5119674;28;19923;-80
2022/01/12 06:23:08;;;;;;;;;;;-0.30;99.90;;;;;;5119957;28;19923;-80
2022/01/12 06:25:35;;;;;;;;;;;-0.40;99.90;;;;;;5118926;28;19938;-80
2022/01/12 06:28:22;;;;;;;;;;;-0.40;99.90;;;;;;5119165;28;19924;-80
2022/01/12 06:33:34;;;;;;;;;;;-0.30;99.90;;;;;;5119943;28;20347;-80
2022/01/12 06:36:01;;;;;;;;;;;-0.30;99.90;;;;;;5118938;28;19927;-80
2022/01/12 06:38:27;;;;;;;;;;;-0.20;99.90;;;;;;5120363;28;19923;-80
2022/01/12 06:40:54;;;;;;;;;;;-0.20;99.90;;;;;;5119896;28;20390;-80
2022/01/12 06:43:20;;;;;;;;;;;-0.10;99.90;;;;;;5128259;28;19908;-79
2022/01/12 06:45:47;;;;;;;;;;;-0.20;99.90;;;;;;5132798;28;19924;-79
2022/01/12 06:48:15;;;;;;;;;;;-0.20;99.90;;;;;;5133414;28;19974;-79
2022/01/12 06:50:41;;;;;;;;;;;-0.20;99.90;;;;;;5134578;28;19924;-79
2022/01/12 06:53:07;;;;;;;;;;;-0.10;99.90;;;;;;5134084;28;19945;-79
2022/01/12 06:55:34;;;;;;;;;;;-0.10;99.90;;;;;;5131465;28;20283;-80
2022/01/12 06:58:00;;;;;;;;;;;0.00;99.90;;;;;;5122411;28;20448;-80
2022/01/12 07:00:27;;;;;;;;;;;-0.10;99.90;;;;;;5125966;28;19969;-80
2022/01/12 07:02:54;;;;;;;;;;;-0.20;99.90;;;;;;5124594;28;19924;-80
2022/01/12 07:05:21;;;;;;;;;;;-0.10;99.90;;;;;;5124626;28;20302;-79
2022/01/12 07:07:48;;;;;;;;;;;-0.10;99.90;;;;;;5125350;28;19927;-79
2022/01/12 07:10:14;;;;;;;;;;;-0.10;99.90;;;;;;5124624;28;19931;-80
2022/01/12 07:12:41;;;;;;;;;;;-0.30;99.90;;;;;;5124427;28;19928;-80
2022/01/12 07:15:08;;;;;;;;;;;-0.10;99.90;;;;;;5124303;27;19981;-80
2022/01/12 07:17:35;;;;;;;;;;;0.00;99.90;;;;;;5124631;28;19924;-80
2022/01/12 07:20:02;;;;;;;;;;;0.10;99.90;;;;;;5123279;28;19927;-79
2022/01/12 07:22:30;;;;;;;;;;;-0.10;99.90;;;;;;5123287;28;19973;-80
2022/01/12 07:24:57;;;;;;;;;;;0.00;99.90;;;;;;5123183;28;20409;-80
2022/01/12 07:27:23;;;;;;;;;;;-0.10;99.90;;;;;;5123557;28;19945;-80
2022/01/12 07:29:50;;;;;;;;;;;0.00;99.90;;;;;;5123331;28;19931;-79
2022/01/12 07:32:16;;;;;;;;;;;-0.10;99.90;;;;;;5124045;28;19924;-79
2022/01/12 07:34:44;;;;;;;;;;;0.00;99.90;;;;;;5123253;28;19970;-79
2022/01/12 07:37:11;;;;;;;;;;;0.10;99.90;;;;;;5122635;28;19923;-79
2022/01/12 07:39:39;;;;;;;;;;;0.10;99.90;;;;;;5122641;28;19924;-80
2022/01/12 07:42:05;;;;;;;;;;;0.00;99.90;;;;;;5122580;28;19923;-80
2022/01/12 07:44:32;;;;;;;;;;;0.00;99.90;;;;;;5122136;28;19950;-79
2022/01/12 07:46:58;;;;;;;;;;;0.10;99.90;;;;;;5121044;28;19924;-79
2022/01/12 07:49:25;;;;;;;;;;;0.10;99.90;;;;;;5122085;28;19955;-79
2022/01/12 07:51:51;;;;;;;;;;;0.10;99.90;;;;;;5122469;28;19931;-80
2022/01/12 07:54:18;;;;;;;;;;;0.20;99.90;;;;;;5123289;28;19924;-81
2022/01/12 07:56:46;;;;;;;;;;;0.20;99.90;;;;;;5121964;28;19924;-80
2022/01/12 07:59:12;;;;;;;;;;;0.30;99.90;;;;;;5121556;28;19923;-80
2022/01/12 08:01:39;;;;;;;;;;;0.30;99.90;;;;;;5121996;28;19924;-81
2022/01/12 08:04:05;;;;;;;;;;;0.30;99.90;;;;;;5121785;28;19973;-80
2022/01/12 08:06:34;;;;;;;;;;;0.20;99.90;;;;;;5121170;28;19928;-81
2022/01/12 08:09:01;;;;;;;;;;;0.20;99.90;;;;;;5122497;28;19980;-80
2022/01/12 08:11:28;;;;;;;;;;;0.30;99.90;;;;;;5123744;28;19977;-81
2022/01/12 08:13:56;;;;;;;;;;;0.40;99.90;;;;;;5123385;28;20382;-82
2022/01/12 08:16:23;;;;;;;;;;;0.40;99.90;;;;;;5125490;28;19966;-80
2022/01/12 08:18:49;;;;;;;;;;;0.40;99.90;;;;;;5125652;28;19924;-81
2022/01/12 08:21:16;;;;;;;;;;;0.50;99.90;;;;;;5125539;28;19923;-80
2022/01/12 08:23:48;;;;;;;;;;;0.60;99.90;;;;;;5124316;28;19924;-81
2022/01/12 08:26:15;;;;;;;;;;;0.60;99.90;;;;;;5122673;28;20378;-80
2022/01/12 08:28:42;;;;;;;;;;;0.70;99.90;;;;;;5126936;28;19928;-81
2022/01/12 08:31:09;;;;;;;;;;;0.60;99.90;;;;;;5131581;28;19924;-81
2022/01/12 08:33:36;;;;;;;;;;;0.70;99.90;;;;;;5132460;28;19930;-81
2022/01/12 08:36:03;;;;;;;;;;;0.70;99.90;;;;;;5129743;28;19924;-81
2022/01/12 08:38:29;;;;;;;;;;;0.60;99.90;;;;;;5123252;28;19924;-80
2022/01/12 08:40:56;;;;;;;;;;;0.70;99.90;;;;;;5124256;28;19945;-80
2022/01/12 08:43:23;;;;;;;;;;;0.70;99.90;;;;;;5126424;28;19923;-80
2022/01/12 08:45:52;;;;;;;;;;;0.80;99.90;;;;;;5125947;28;19924;-80
2022/01/12 08:48:21;;;;;;;;;;;0.80;99.90;;;;;;5126298;28;19931;-79
2022/01/12 08:50:47;;;;;;;;;;;0.90;99.90;;;;;;5129254;28;19931;-79
2022/01/12 08:53:14;;;;;;;;;;;1.00;99.90;;;;;;5131284;28;19977;-81
2022/01/12 08:55:40;;;;;;;;;;;1.00;99.90;;;;;;5127950;28;19923;-80
2022/01/12 08:58:07;;;;;;;;;;;1.10;99.90;;;;;;5125440;28;19942;-80
2022/01/12 09:00:34;;;;;;;;;;;1.20;99.90;;;;;;5127007;28;19996;-81
2022/01/12 09:03:01;;;;;;;;;;;1.20;99.90;;;;;;5125241;28;19923;-82
2022/01/12 09:05:30;;;;;;;;;;;1.20;99.90;;;;;;5122341;28;19924;-81
2022/01/12 09:07:56;;;;;;;;;;;1.30;99.90;;;;;;5121036;28;19955;-80
2022/01/12 09:10:23;;;;;;;;;;;1.40;99.90;;;;;;5120606;28;19970;-80
2022/01/12 09:12:49;;;;;;;;;;;1.40;99.90;;;;;;5125006;28;19924;-80
2022/01/12 09:15:16;;;;;;;;;;;1.40;99.90;;;;;;5133363;28;19924;-80
2022/01/12 09:17:43;;;;;;;;;;;1.40;99.90;;;;;;5130712;28;20370;-80
2022/01/12 09:20:10;;;;;;;;;;;1.50;99.90;;;;;;5130846;28;19924;-80
2022/01/12 09:22:38;;;;;;;;;;;1.60;99.90;;;;;;5129398;28;19946;-79
2022/01/12 09:25:06;;;;;;;;;;;1.60;99.90;;;;;;5131167;28;19923;-80
2022/01/12 09:27:33;;;;;;;;;;;1.70;99.90;;;;;;5131878;28;19973;-80
2022/01/12 09:29:59;;;;;;;;;;;1.70;99.90;;;;;;5126856;28;19925;-80
2022/01/12 09:32:26;;;;;;;;;;;1.70;99.90;;;;;;5124570;28;19923;-81
2022/01/12 09:34:52;;;;;;;;;;;1.70;99.90;;;;;;5121025;27;19923;-80
2022/01/12 09:37:20;;;;;;;;;;;1.70;99.90;;;;;;5121251;28;19946;-80
2022/01/12 09:39:49;;;;;;;;;;;1.80;99.90;;;;;;5120769;28;19954;-80
2022/01/12 09:42:18;;;;;;;;;;;1.80;99.90;;;;;;5119575;28;19927;-80
2022/01/12 09:44:46;;;;;;;;;;;1.90;99.90;;;;;;5120239;28;19938;-81
2022/01/12 09:47:13;;;;;;;;;;;2.00;99.90;;;;;;5121044;28;19924;-81
2022/01/12 09:49:42;;;;;;;;;;;2.00;99.90;;;;;;5120658;28;19924;-80
2022/01/12 09:52:09;;;;;;;;;;;2.00;99.90;;;;;;5120260;28;19928;-80
2022/01/12 09:54:36;;;;;;;;;;;2.10;99.90;;;;;;5122933;28;19930;-81
2022/01/12 09:57:05;;;;;;;;;;;2.10;99.90;;;;;;5122897;28;20006;-79
2022/01/12 09:59:32;;;;;;;;;;;2.20;99.90;;;;;;5122840;28;19928;-79
2022/01/12 10:01:59;;;;;;;;;;;2.20;99.90;;;;;;5121898;28;19923;-79
2022/01/12 10:04:27;;;;;;;;;;;2.20;99.90;;;;;;5119774;28;20302;-79
2022/01/12 10:06:54;;;;;;;;;;;2.20;99.90;;;;;;5119519;28;20393;-80
2022/01/12 10:09:23;;;;;;;;;;;2.30;99.90;;;;;;5118786;28;19924;-80
2022/01/12 10:11:50;;;;;;;;;;;2.20;99.90;;;;;;5119554;28;19923;-80
2022/01/12 10:14:18;;;;;;;;;;;2.20;99.90;;;;;;5119887;28;19924;-80
2022/01/12 10:16:50;;;;;;;;;;;2.20;99.90;;;;;;5120082;28;19986;-81
2022/01/12 10:19:24;;;;;;;;;;;2.20;99.90;;;;;;5120101;28;20367;-79
2022/01/12 10:21:50;;;;;;;;;;;2.20;99.90;;;;;;5119543;28;20386;-80
2022/01/12 10:24:19;;;;;;;;;;;2.20;99.90;;;;;;5118462;28;20366;-80
2022/01/12 10:26:46;;;;;;;;;;;2.20;99.90;;;;;;5119221;28;19923;-80
2022/01/12 10:29:15;;;;;;;;;;;2.30;99.90;;;;;;5119423;28;19951;-80
2022/01/12 10:31:48;;;;;;;;;;;2.30;99.90;;;;;;5120172;28;19931;-80
2022/01/12 10:34:15;;;;;;;;;;;2.40;99.90;;;;;;5119465;28;19923;-80
2022/01/12 10:36:42;;;;;;;;;;;2.40;99.90;;;;;;5119206;28;19946;-80
2022/01/12 10:39:09;;;;;;;;;;;2.50;99.90;;;;;;5119110;28;20455;-80
2022/01/12 10:41:41;;;;;;;;;;;2.50;99.90;;;;;;5119210;28;21274;-80
2022/01/12 10:44:18;;;;;;;;;;;2.50;99.90;;;;;;5119571;28;19963;-80
2022/01/12 10:46:49;;;;;;;;;;;2.70;99.90;;;;;;5119221;28;20337;-80
2022/01/12 10:49:20;;;;;;;;;;;2.70;99.90;;;;;;5119325;28;19966;-80
2022/01/12 10:51:54;;;;;;;;;;;2.80;99.90;;;;;;5120319;28;20279;-80
2022/01/12 10:54:20;;;;;;;;;;;2.80;99.90;;;;;;5120195;28;19962;-79
2022/01/12 10:56:47;;;;;;;;;;;2.90;99.90;;;;;;5120441;28;19924;-80
2022/01/12 10:59:16;;;;;;;;;;;2.90;99.90;;;;;;5119753;28;19950;-79
2022/01/12 11:01:42;;;;;;;;;;;3.00;99.90;;;;;;5121246;28;19938;-80
2022/01/12 11:04:10;;;;;;;;;;;3.00;99.90;;;;;;5120667;28;19924;-80
2022/01/12 11:06:37;;;;;;;;;;;3.00;99.90;;;;;;5119934;28;19928;-80
2022/01/12 11:09:04;;;;;;;;;;;3.10;99.90;;;;;;5121737;28;19946;-80
2022/01/12 11:11:31;;;;;;;;;;;3.10;99.90;;;;;;5124759;28;20386;-78
2022/01/12 11:13:57;;;;;;;;;;;3.20;99.90;;;;;;5126593;28;19924;-79
2022/01/12 11:16:25;;;;;;;;;;;3.30;99.90;;;;;;5125360;28;19924;-79
2022/01/12 11:18:52;;;;;;;;;;;3.30;99.90;;;;;;5127932;28;19924;-80
2022/01/12 11:21:24;;;;;;;;;;;3.40;99.90;;;;;;5128184;28;19924;-80
2022/01/12 11:23:51;;;;;;;;;;;3.40;99.90;;;;;;5127724;28;19923;-79
2022/01/12 11:26:18;;;;;;;;;;;3.40;99.90;;;;;;5135946;22;19946;-79
2022/01/12 11:28:46;;;;;;;;;;;3.70;99.90;;;;;;5118436;28;19960;-79
2022/01/12 11:31:15;;;;;;;;;;;3.30;99.90;;;;;;5118649;28;19923;-78
2022/01/12 11:33:44;;;;;;;;;;;3.50;99.90;;;;;;5118329;28;19924;-79
2022/01/12 11:36:15;;;;;;;;;;;5.40;99.90;;;;;;5118656;28;19974;-79
2022/01/12 11:38:50;;;;;;;;;;;3.30;99.90;;;;;;5118259;28;19923;-78
2022/01/12 11:41:20;;;;;;;;;;;3.30;99.90;;;;;;5126253;28;19924;-78
2022/01/12 11:43:50;;;;;;;;;;;3.30;99.90;;;;;;5121352;28;19990;-77
2022/01/12 11:46:19;;;;;;;;;;;3.30;99.90;;;;;;5123478;28;19931;-79
2022/01/12 11:48:47;;;;;;;;;;;3.20;99.90;;;;;;5121634;28;19967;-79
2022/01/12 11:51:14;;;;;;;;;;;3.30;99.90;;;;;;5121618;28;20389;-78
2022/01/12 11:53:49;;;;;;;;;;;3.30;99.90;;;;;;5120781;28;20018;-78
2022/01/12 11:56:18;;;;;;;;;;;3.30;99.90;;;;;;5126147;28;19923;-79
2022/01/12 11:58:51;;;;;;;;;;;3.30;99.90;;;;;;5121674;28;20408;-79
2022/01/12 12:01:18;;;;;;;;;;;3.20;99.90;;;;;;5120433;28;19924;-78
2022/01/12 12:03:55;;;;;;;;;;;3.30;99.90;;;;;;5126628;28;19969;-77
2022/01/12 12:06:22;;;;;;;;;;;3.30;99.90;;;;;;5121471;28;19997;-79
2022/01/12 12:08:57;;;;;;;;;;;3.30;99.90;;;;;;5121235;28;20014;-78
2022/01/12 12:11:25;;;;;;;;;;;3.30;99.90;;;;;;5121692;28;19931;-78
2022/01/12 12:13:51;;;;;;;;;;;3.30;99.90;;;;;;5119014;28;20406;-79
2022/01/12 12:16:18;;;;;;;;;;;3.30;99.90;;;;;;5121533;28;20365;-78
2022/01/12 12:18:45;;;;;;;;;;;3.30;99.90;;;;;;5121789;28;19960;-80
2022/01/12 12:21:11;;;;;;;;;;;3.30;99.90;;;;;;5122226;28;20384;-78
2022/01/12 12:23:38;;;;;;;;;;;3.30;99.90;;;;;;5121784;28;19924;-78
2022/01/12 12:26:08;;;;;;;;;;;3.20;99.90;;;;;;5121057;28;19990;-78
2022/01/12 12:28:35;;;;;;;;;;;3.20;99.90;;;;;;5120133;28;19955;-78
2022/01/12 12:31:01;;;;;;;;;;;3.20;99.90;;;;;;5119896;28;19940;-79
2022/01/12 12:33:28;;;;;;;;;;;3.20;99.90;;;;;;5120919;28;19966;-79
2022/01/12 12:35:54;;;;;;;;;;;3.20;99.90;;;;;;5128120;28;19930;-78
2022/01/12 12:38:20;;;;;;;;;;;3.20;99.90;;;;;;5131311;27;19938;-78
2022/01/12 12:40:48;;;;;;;;;;;3.20;99.90;;;;;;5129553;28;19931;-79
2022/01/12 12:43:19;;;;;;;;;;;3.20;99.90;;;;;;5120197;28;19928;-78
2022/01/12 12:45:48;;;;;;;;;;;3.20;99.90;;;;;;5120281;28;19934;-79
2022/01/12 12:48:15;;;;;;;;;;;3.20;99.90;;;;;;5120081;28;19923;-79
2022/01/12 12:50:42;;;;;;;;;;;3.10;99.90;;;;;;5120434;28;20014;-79
2022/01/12 12:53:08;;;;;;;;;;;3.10;99.90;;;;;;5122213;28;19923;-78
2022/01/12 12:55:36;;;;;;;;;;;3.20;99.90;;;;;;5126347;28;20337;-77
2022/01/12 12:58:03;;;;;;;;;;;3.10;99.90;;;;;;5131896;28;19970;-78
2022/01/12 13:00:31;;;;;;;;;;;3.10;99.90;;;;;;5130495;28;19935;-78
2022/01/12 13:02:58;;;;;;;;;;;3.20;99.90;;;;;;5129294;28;19973;-77
2022/01/12 13:05:26;;;;;;;;;;;3.20;99.90;;;;;;5128922;28;19923;-80
2022/01/12 13:07:52;;;;;;;;;;;3.10;99.90;;;;;;5127810;28;19962;-80
2022/01/12 13:13:22;;;;;;;;;;;3.20;99.90;;;;;;5127913;28;19923;-79
2022/01/12 13:15:50;;;;;;;;;;;3.20;99.90;;;;;;5125613;28;19928;-77
2022/01/12 13:18:18;;;;;;;;;;;3.20;99.90;;;;;;5124925;28;19923;-78
2022/01/12 13:23:37;;;;;;;;;;;3.10;99.90;;;;;;5121389;28;19926;-79
2022/01/12 13:26:04;;;;;;;;;;;3.20;99.90;;;;;;5118037;28;20394;-78
2022/01/12 13:28:31;;;;;;;;;;;3.10;99.90;;;;;;5119943;28;19949;-78
2022/01/12 13:31:01;;;;;;;;;;;3.10;99.90;;;;;;5119858;28;20394;-79
2022/01/12 13:33:29;;;;;;;;;;;3.20;99.90;;;;;;5118082;28;20519;-79
2022/01/12 13:35:57;;;;;;;;;;;3.20;99.90;;;;;;5124251;28;19924;-78
2022/01/12 13:38:25;;;;;;;;;;;3.20;99.90;;;;;;5119725;28;20301;-79
2022/01/12 13:40:55;;;;;;;;;;;3.20;99.90;;;;;;5118472;28;19950;-79
2022/01/12 13:43:22;;;;;;;;;;;3.20;99.90;;;;;;5119635;28;19935;-78
2022/01/12 13:45:56;;;;;;;;;;;3.20;99.90;;;;;;5119801;28;19924;-79
2022/01/12 13:48:29;;;;;;;;;;;3.20;99.90;;;;;;5119683;28;19999;-80
2022/01/12 13:50:55;;;;;;;;;;;3.20;99.90;;;;;;5120097;28;19924;-79
2022/01/12 13:53:31;;;;;;;;;;;3.20;99.90;;;;;;5119373;28;19969;-78
2022/01/12 13:55:57;;;;;;;;;;;3.20;99.90;;;;;;5118075;28;19976;-78
2022/01/12 13:58:25;;;;;;;;;;;3.20;99.90;;;;;;5118837;28;19963;-79
2022/01/12 14:00:58;;;;;;;;;;;3.20;99.90;;;;;;5117564;28;19923;-79
2022/01/12 14:03:26;;;;;;;;;;;3.20;99.90;;;;;;5116689;28;19971;-79
2022/01/12 14:05:58;;;;;;;;;;;3.20;99.90;;;;;;5116715;28;20407;-79
2022/01/12 14:08:39;;;;;;;;;;;3.30;99.90;;;;;;5117799;28;19969;-79
2022/01/12 14:11:06;;;;;;;;;;;3.20;99.90;;;;;;5117383;28;19979;-78
2022/01/12 14:13:33;;;;;;;;;;;3.20;99.90;;;;;;5119018;28;19974;-78
2022/01/12 14:16:05;;;;;;;;;;;3.20;99.90;;;;;;5118292;28;19924;-80
2022/01/12 14:18:33;;;;;;;;;;;3.20;99.90;;;;;;5118399;28;19928;-78
2022/01/12 14:21:00;;;;;;;;;;;3.20;99.90;;;;;;5119066;28;19970;-79
2022/01/12 14:23:37;;;;;;;;;;;3.20;99.90;;;;;;5118106;28;20335;-79
2022/01/12 14:26:03;;;;;;;;;;;3.20;99.90;;;;;;5119581;28;19972;-80
2022/01/12 14:28:31;;;;;;;;;;;3.20;99.90;;;;;;5120458;28;19924;-79
2022/01/12 14:30:57;;;;;;;;;;;3.20;99.90;;;;;;5119609;28;19946;-79
2022/01/12 14:33:24;;;;;;;;;;;3.30;99.90;;;;;;5123657;28;20275;-79
2022/01/12 14:35:53;;;;;;;;;;;3.30;99.90;;;;;;5121271;28;19931;-79
2022/01/12 14:38:20;;;;;;;;;;;3.30;99.90;;;;;;5117649;28;20058;-80
2022/01/12 14:40:46;;;;;;;;;;;3.20;99.90;;;;;;5118414;28;19992;-79
2022/01/12 14:43:13;;;;;;;;;;;3.20;99.90;;;;;;5118345;28;19966;-79
2022/01/12 14:45:41;;;;;;;;;;;3.30;99.90;;;;;;5118560;28;19923;-80
2022/01/12 14:48:09;;;;;;;;;;;3.30;99.90;;;;;;5119106;28;19931;-79
2022/01/12 14:50:38;;;;;;;;;;;3.20;99.90;;;;;;5119115;28;19923;-77
2022/01/12 14:53:07;;;;;;;;;;;3.30;99.90;;;;;;5119723;28;19943;-79
2022/01/12 14:55:33;;;;;;;;;;;3.30;99.90;;;;;;5120582;28;19924;-79
2022/01/12 14:58:00;;;;;;;;;;;3.30;99.90;;;;;;5123068;28;20428;-79
2022/01/12 15:00:28;;;;;;;;;;;3.30;99.90;;;;;;5127874;28;19970;-79
2022/01/12 15:02:55;;;;;;;;;;;3.30;99.90;;;;;;5126984;28;19924;-78
2022/01/12 15:05:22;;;;;;;;;;;3.30;99.90;;;;;;5125050;28;19928;-79
2022/01/12 15:07:49;;;;;;;;;;;3.30;99.90;;;;;;5122285;28;19981;-79
2022/01/12 15:10:17;;;;;;;;;;;3.30;99.90;;;;;;5119447;28;19923;-79
2022/01/12 15:12:43;;;;;;;;;;;3.30;99.90;;;;;;5127079;28;19932;-78
2022/01/12 15:15:11;;;;;;;;;;;3.30;99.90;;;;;;5127547;28;19924;-78
2022/01/12 15:17:38;;;;;;;;;;;3.30;99.90;;;;;;5130492;27;19924;-78
2022/01/12 15:20:08;;;;;;;;;;;3.30;99.90;;;;;;5130570;28;19987;-79
2022/01/12 15:22:35;;;;;;;;;;;3.30;99.90;;;;;;5129863;28;19931;-79
2022/01/12 15:25:02;;;;;;;;;;;3.30;99.90;;;;;;5131702;28;20300;-78
2022/01/12 15:27:29;;;;;;;;;;;3.30;99.90;;;;;;5131902;28;19957;-78
2022/01/12 15:29:57;;;;;;;;;;;3.30;99.90;;;;;;5132002;27;19924;-79
2022/01/12 15:32:25;;;;;;;;;;;3.30;99.90;;;;;;5128257;28;19923;-78
2022/01/12 15:34:51;;;;;;;;;;;3.30;99.90;;;;;;5126908;28;19935;-78
2022/01/12 15:37:18;;;;;;;;;;;3.40;99.90;;;;;;5125984;28;19959;-79
2022/01/12 15:39:44;;;;;;;;;;;3.50;99.90;;;;;;5123723;28;19924;-78
2022/01/12 15:42:10;;;;;;;;;;;3.40;99.90;;;;;;5122952;28;20378;-78
2022/01/12 15:44:38;;;;;;;;;;;3.40;99.90;;;;;;5121478;28;19970;-78
2022/01/12 15:47:05;;;;;;;;;;;3.30;99.90;;;;;;5121109;28;19923;-79
2022/01/12 15:49:39;;;;;;;;;;;3.40;99.90;;;;;;5124429;28;19928;-82
2022/01/12 15:52:06;;;;;;;;;;;3.40;99.90;;;;;;5123074;28;20386;-81
2022/01/12 15:54:32;;;;;;;;;;;3.40;99.90;;;;;;5122351;28;20410;-79